Hovedside
METAR-TAF:

METAR-TAF

Lufthavner :

Vadsø, Norge

Vadsø lufthavn

breddegrad: 70-04N, lengdegrad: 029-51E, høyde over havet: 3 m

Gjeldene værobservasjon

Denne rapporten ble laget for 55 minutter siden, klokken 03:50 UTC
Vind 10 kt fra Vest
Temperatur -5°C
Luftfuktighet 79%
Trykk 1011 hPa
Sikt 10 km eller mer
Få skyer i en høyde av 2000 ft

METAR: ENVD 250350Z 27010KT 9999 FEW020 M05/M08 Q1011

Tid: 06:45 (04:45 UTC)

Varsel

Denne rapporten ble laget for 1 time og 7 minutter siden, klokken 03:38 UTC
Varsel gyldig fra 25. klokken 03 UTC til 25. klokken 12 UTC
Vind 8 kt fra Vest
Sikt 10 km eller mer
Få skyer i en høyde av 1500 ft

TAF: ENVD 250338Z 2503/2512 27008KT 9999 FEW015

Værobservasjoner og værvarsel for over 4000 flyplasser (METAR- og TAF-rapporter).

Tilgjengelige stasjoner er representert av de røde og gule prikkene på kartet.

Hold musepekeren over prikken for å se navnet på stasjonen.

Klikk så for å se værobservasjoner og -varsler.

For å forandre kartet kan du klikke på den grønne knappen med svart kryss for å zoome inn, på den grønne knappen med strek for å zoome ut, eller på de grønne pilene for å se tilstøtende kart.


METAR-TAF: